Time;durP1;ratioP1;P1;durP2;ratioP2;P2;SDS_P1;SDS_P2;PMS_P1;PMS_P2;Temp;Humidity;BMP_temperature;BMP_pressure;BME280_temperature;BME280_humidity;BME280_pressure;Samples;Min_cycle;Max_cycle;Signal;HPM_P1;HPM_P2
2023/05/18 00:00:20;;;;;;;19.52;17.05;;;8.50;99.90;;;;;;5049755;28;20072;-67
2023/05/18 00:02:47;;;;;;;19.17;15.45;;;8.50;99.90;;;;;;5051362;28;20032;-67
2023/05/18 00:05:12;;;;;;;16.50;14.90;;;8.60;99.90;;;;;;5052305;28;20041;-67
2023/05/18 00:07:39;;;;;;;19.88;16.85;;;8.60;99.90;;;;;;5048274;28;20042;-67
2023/05/18 00:10:06;;;;;;;18.90;16.90;;;8.60;99.90;;;;;;5044279;28;20048;-67
2023/05/18 00:12:32;;;;;;;22.25;17.63;;;8.60;99.90;;;;;;5051418;28;20041;-67
2023/05/18 00:14:57;;;;;;;18.35;16.27;;;8.60;99.90;;;;;;5051463;28;20047;-67
2023/05/18 00:17:23;;;;;;;16.55;14.77;;;8.70;99.90;;;;;;5051807;28;20037;-67
2023/05/18 00:19:49;;;;;;;22.25;16.13;;;8.60;99.90;;;;;;5051528;28;20041;-67
2023/05/18 00:22:16;;;;;;;19.42;15.98;;;8.70;99.90;;;;;;5049964;28;20044;-67
2023/05/18 00:24:46;;;;;;;23.42;15.75;;;8.70;99.90;;;;;;5051251;28;20575;-67
2023/05/18 00:27:11;;;;;;;15.75;13.07;;;8.70;99.90;;;;;;5051787;28;20870;-67
2023/05/18 00:29:37;;;;;;;19.65;13.73;;;8.70;99.90;;;;;;5051150;28;20069;-67
2023/05/18 00:32:03;;;;;;;22.00;13.02;;;8.70;99.90;;;;;;5050849;28;20115;-67
2023/05/18 00:34:28;;;;;;;16.20;13.38;;;8.80;99.90;;;;;;5051127;28;20045;-67
2023/05/18 00:36:54;;;;;;;16.52;14.30;;;8.80;99.90;;;;;;5051231;28;20395;-67
2023/05/18 00:39:20;;;;;;;18.60;14.85;;;8.80;99.90;;;;;;5050342;28;20122;-67
2023/05/18 00:41:45;;;;;;;17.88;16.00;;;8.80;99.90;;;;;;5051406;28;20110;-67
2023/05/18 00:44:11;;;;;;;16.13;14.43;;;8.80;99.90;;;;;;5050407;28;20510;-67
2023/05/18 00:46:36;;;;;;;21.70;15.95;;;8.80;99.90;;;;;;5050783;28;20041;-67
2023/05/18 00:49:02;;;;;;;19.00;14.18;;;8.80;99.90;;;;;;5049853;28;20491;-67
2023/05/18 00:51:30;;;;;;;18.40;15.05;;;8.80;99.90;;;;;;5051176;28;20052;-67
2023/05/18 00:53:57;;;;;;;16.77;14.90;;;8.80;99.90;;;;;;5050859;28;20107;-66
2023/05/18 00:56:23;;;;;;;17.92;13.82;;;8.90;99.90;;;;;;5051256;28;20426;-67
2023/05/18 00:58:56;;;;;;;19.98;14.50;;;8.80;99.90;;;;;;5051037;28;20041;-67
2023/05/18 01:01:35;;;;;;;23.52;13.93;;;8.80;99.90;;;;;;5050723;28;20067;-67
2023/05/18 01:04:03;;;;;;;15.32;13.82;;;8.80;99.90;;;;;;5050426;28;20076;-67
2023/05/18 01:06:31;;;;;;;18.40;14.60;;;8.80;99.90;;;;;;5050571;28;20115;-67
2023/05/18 01:08:58;;;;;;;18.92;17.00;;;8.80;99.90;;;;;;5050259;28;20056;-67
2023/05/18 01:11:51;;;;;;;20.17;15.60;;;8.70;99.90;;;;;;5031028;28;20029;-67
2023/05/18 01:14:25;;;;;;;21.67;13.18;;;8.70;99.90;;;;;;5037007;28;20043;-67
2023/05/18 01:17:13;;;;;;;19.80;14.05;;;8.70;99.90;;;;;;5050171;28;20041;-67
2023/05/18 01:19:50;;;;;;;20.40;18.52;;;8.60;99.90;;;;;;5050767;28;20388;-66
2023/05/18 01:22:35;;;;;;;17.55;15.43;;;8.70;99.90;;;;;;5050469;28;20478;-67
2023/05/18 01:25:23;;;;;;;19.10;17.45;;;8.60;99.90;;;;;;5049889;28;20402;-67
2023/05/18 01:27:54;;;;;;;22.00;16.60;;;8.50;1.00;;;;;;5048897;28;20053;-67
2023/05/18 01:30:21;;;;;;;19.45;17.65;;;8.50;1.00;;;;;;5050837;28;20053;-66
2023/05/18 01:32:46;;;;;;;19.25;17.33;;;8.40;1.00;;;;;;5050363;28;20179;-67
2023/05/18 01:35:12;;;;;;;17.95;16.27;;;8.30;1.00;;;;;;5050119;28;20044;-66
2023/05/18 01:37:37;;;;;;;23.15;18.02;;;8.40;1.00;;;;;;5048500;28;20087;-66
2023/05/18 01:40:05;;;;;;;19.50;17.70;;;8.40;1.00;;;;;;5049117;28;20069;-66
2023/05/18 01:42:33;;;;;;;23.55;16.02;;;8.40;1.00;;;;;;5050020;28;20090;-67
2023/05/18 01:45:08;;;;;;;19.42;17.65;;;8.30;1.00;;;;;;5049739;28;20040;-67
2023/05/18 01:47:36;;;;;;;18.55;15.32;;;8.30;1.00;;;;;;5050105;28;20048;-67
2023/05/18 01:50:11;;;;;;;17.30;15.60;;;8.30;1.00;;;;;;5050153;28;20406;-67
2023/05/18 01:52:43;;;;;;;19.33;17.45;;;8.30;1.00;;;;;;5050040;28;20092;-67
2023/05/18 01:55:10;;;;;;;19.42;17.40;;;8.30;1.00;;;;;;5049089;28;20522;-67
2023/05/18 01:57:38;;;;;;;18.48;16.55;;;8.60;1.00;;;;;;5049337;28;20045;-67
2023/05/18 02:00:08;;;;;;;19.50;17.60;;;8.30;1.00;;;;;;5049925;28;20395;-67
2023/05/18 02:02:34;;;;;;;19.05;17.20;;;8.30;1.00;;;;;;5048222;28;20055;-67
2023/05/18 02:05:00;;;;;;;18.13;16.40;;;8.30;1.00;;;;;;5049508;28;20033;-67
2023/05/18 02:07:25;;;;;;;20.52;17.55;;;8.30;1.00;;;;;;5049544;28;20123;-67
2023/05/18 02:09:51;;;;;;;19.42;17.55;;;8.30;4.70;;;;;;5049816;28;20068;-67
2023/05/18 02:12:16;;;;;;;21.05;18.83;;;8.20;38.30;;;;;;5049369;28;20126;-67
2023/05/18 02:14:42;;;;;;;19.00;17.27;;;8.20;77.50;;;;;;5049317;28;20029;-66
2023/05/18 02:17:08;;;;;;;20.60;16.75;;;8.10;99.90;;;;;;5049026;28;20466;-67
2023/05/18 02:19:36;;;;;;;19.88;17.65;;;8.20;99.90;;;;;;5049569;28;20037;-67
2023/05/18 02:22:05;;;;;;;19.05;17.35;;;8.10;99.90;;;;;;5049317;28;20145;-67
2023/05/18 02:24:31;;;;;;;20.90;18.83;;;8.20;99.90;;;;;;5049233;28;20041;-66
2023/05/18 02:26:57;;;;;;;20.15;17.42;;;8.20;99.90;;;;;;5049206;28;20652;-67
2023/05/18 02:29:22;;;;;;;19.45;15.77;;;8.30;99.90;;;;;;5049373;28;20088;-67
2023/05/18 02:31:48;;;;;;;17.10;15.60;;;8.30;99.90;;;;;;5049115;28;20049;-67
2023/05/18 02:34:14;;;;;;;17.60;15.80;;;8.20;99.90;;;;;;5049404;28;21214;-67
2023/05/18 02:36:41;;;;;;;21.30;15.85;;;8.30;99.90;;;;;;5049696;28;20041;-67
2023/05/18 02:39:09;;;;;;;17.90;16.10;;;8.20;99.90;;;;;;5048716;28;20041;-67
2023/05/18 02:41:36;;;;;;;17.13;14.82;;;8.20;99.90;;;;;;5049394;28;20094;-67
2023/05/18 02:44:05;;;;;;;18.05;16.38;;;8.20;99.90;;;;;;5048788;28;20036;-67
2023/05/18 02:46:31;;;;;;;18.30;16.02;;;8.30;99.90;;;;;;5030309;28;20076;-67
2023/05/18 02:48:57;;;;;;;16.15;14.50;;;8.20;99.90;;;;;;5049229;28;20502;-67
2023/05/18 02:51:22;;;;;;;17.80;15.95;;;8.30;99.90;;;;;;5050456;28;20107;-67
2023/05/18 02:53:49;;;;;;;19.77;14.45;;;8.30;99.90;;;;;;5053218;28;20076;-67
2023/05/18 02:56:16;;;;;;;18.73;16.85;;;8.30;99.90;;;;;;5052723;28;20033;-67
2023/05/18 02:58:42;;;;;;;16.33;13.77;;;8.30;99.90;;;;;;5053432;28;20051;-67
2023/05/18 03:01:10;;;;;;;19.40;16.60;;;8.30;99.90;;;;;;5053164;28;20033;-67
2023/05/18 03:03:37;;;;;;;18.52;14.70;;;8.30;99.90;;;;;;5053309;28;20035;-67
2023/05/18 03:06:04;;;;;;;18.73;15.93;;;8.40;99.90;;;;;;5053114;28;20048;-67
2023/05/18 03:08:30;;;;;;;18.42;15.73;;;8.40;99.90;;;;;;5053102;28;20045;-67
2023/05/18 03:10:57;;;;;;;22.02;16.75;;;8.40;99.90;;;;;;5052529;28;20044;-67
2023/05/18 03:13:23;;;;;;;17.70;15.77;;;8.40;99.90;;;;;;5052713;28;20041;-67
2023/05/18 03:15:49;;;;;;;19.67;15.48;;;8.40;99.90;;;;;;5031301;28;20069;-67
2023/05/18 03:18:16;;;;;;;18.38;14.80;;;8.30;99.90;;;;;;5049624;28;20051;-67
2023/05/18 03:20:42;;;;;;;19.88;15.07;;;8.40;99.90;;;;;;5052092;28;20029;-67
2023/05/18 03:23:08;;;;;;;19.42;17.58;;;8.30;99.90;;;;;;5053030;28;20514;-67
2023/05/18 03:25:36;;;;;;;18.50;16.52;;;8.30;99.90;;;;;;5067453;28;20041;-67
2023/05/18 03:28:03;;;;;;;20.17;18.08;;;8.30;99.90;;;;;;5052431;28;20045;-67
2023/05/18 03:30:30;;;;;;;18.58;16.70;;;8.40;99.90;;;;;;5052584;28;20068;-67
2023/05/18 03:32:56;;;;;;;21.55;16.60;;;8.50;99.90;;;;;;5052296;28;20075;-67
2023/05/18 03:35:22;;;;;;;18.92;16.40;;;8.50;99.90;;;;;;5051945;28;20471;-67
2023/05/18 03:37:47;;;;;;;19.55;17.63;;;8.50;99.90;;;;;;5051855;28;20064;-67
2023/05/18 03:40:15;;;;;;;19.10;17.05;;;8.60;99.90;;;;;;5052099;28;20037;-67
2023/05/18 03:42:41;;;;;;;15.93;14.27;;;8.50;1.00;;;;;;5052103;28;20102;-67
2023/05/18 03:45:10;;;;;;;16.98;15.18;;;8.40;99.90;;;;;;5052426;28;20108;-67
2023/05/18 03:47:37;;;;;;;26.27;17.13;;;8.40;99.90;;;;;;5052661;28;20051;-67
2023/05/18 03:50:04;;;;;;;20.67;18.02;;;8.40;99.90;;;;;;5052329;28;20394;-67
2023/05/18 03:52:32;;;;;;;23.70;19.00;;;8.40;99.90;;;;;;5051720;28;20483;-66
2023/05/18 03:54:59;;;;;;;18.98;17.15;;;8.50;99.90;;;;;;5052110;28;20479;-67
2023/05/18 03:57:25;;;;;;;18.65;16.90;;;8.50;99.90;;;;;;5052204;28;20036;-67
2023/05/18 03:59:51;;;;;;;22.45;18.70;;;8.50;1.00;;;;;;5052238;28;20565;-66
2023/05/18 04:02:17;;;;;;;23.15;18.58;;;8.60;1.00;;;;;;5052147;28;20041;-67
2023/05/18 04:04:44;;;;;;;20.50;15.88;;;8.60;1.00;;;;;;5050410;28;20072;-67
2023/05/18 04:07:11;;;;;;;17.65;15.43;;;8.60;1.00;;;;;;5052024;28;20052;-67
2023/05/18 04:09:38;;;;;;;22.15;16.77;;;8.60;1.00;;;;;;5052551;28;20045;-67
2023/05/18 04:12:04;;;;;;;17.77;15.23;;;8.60;1.00;;;;;;5052119;28;20487;-67
2023/05/18 04:14:31;;;;;;;18.30;13.95;;;8.60;1.00;;;;;;5051743;28;20051;-67
2023/05/18 04:17:03;;;;;;;20.25;15.25;;;8.60;99.90;;;;;;5051797;28;20091;-67
2023/05/18 04:19:32;;;;;;;16.45;13.25;;;8.60;99.90;;;;;;5051727;28;20120;-67
2023/05/18 04:21:58;;;;;;;17.73;12.60;;;8.70;99.90;;;;;;5051250;28;20120;-67
2023/05/18 04:24:25;;;;;;;18.98;13.80;;;8.70;99.90;;;;;;5051564;28;20132;-67
2023/05/18 04:26:52;;;;;;;13.88;12.23;;;8.70;99.90;;;;;;5051454;28;20200;-67
2023/05/18 04:29:18;;;;;;;15.88;14.13;;;8.70;99.90;;;;;;5051375;28;20040;-67
2023/05/18 04:31:46;;;;;;;18.15;15.23;;;8.80;99.90;;;;;;5051391;28;20507;-67
2023/05/18 04:34:12;;;;;;;17.00;14.30;;;8.90;99.90;;;;;;5051525;28;20040;-67
2023/05/18 04:36:41;;;;;;;21.00;14.55;;;8.90;99.90;;;;;;5050779;28;20546;-66
2023/05/18 04:39:08;;;;;;;24.58;13.02;;;9.00;99.90;;;;;;5050951;28;20128;-67
2023/05/18 04:41:34;;;;;;;16.02;12.30;;;9.00;99.90;;;;;;5051260;28;20056;-67
2023/05/18 04:44:03;;;;;;;16.25;12.48;;;9.00;99.90;;;;;;5051505;28;20044;-67
2023/05/18 04:46:29;;;;;;;16.10;14.30;;;9.10;99.90;;;;;;5050331;28;20037;-67
2023/05/18 04:48:56;;;;;;;18.60;13.05;;;9.20;99.90;;;;;;5049636;28;20048;-67
2023/05/18 04:51:23;;;;;;;16.90;14.48;;;9.20;99.90;;;;;;5049752;28;20045;-67
2023/05/18 04:53:50;;;;;;;14.60;9.90;;;9.30;99.90;;;;;;5050865;28;20128;-67
2023/05/18 04:56:16;;;;;;;10.93;9.27;;;9.30;99.90;;;;;;5050851;28;20092;-67
2023/05/18 04:58:46;;;;;;;16.55;10.40;;;9.30;99.90;;;;;;5051140;28;20037;-67
2023/05/18 05:01:14;;;;;;;14.90;8.60;;;9.40;99.90;;;;;;5050945;28;20083;-67
2023/05/18 05:03:40;;;;;;;14.35;8.13;;;9.40;99.90;;;;;;5050928;28;20075;-67
2023/05/18 05:06:06;;;;;;;17.40;7.70;;;9.50;93.10;;;;;;5050185;28;20072;-67
2023/05/18 05:08:31;;;;;;;16.60;8.88;;;9.50;65.10;;;;;;5050409;28;20073;-67
2023/05/18 05:10:57;;;;;;;15.80;8.02;;;9.50;34.30;;;;;;5050569;28;20482;-67
2023/05/18 05:13:23;;;;;;;14.93;7.88;;;9.60;12.00;;;;;;5050646;28;20760;-67
2023/05/18 05:15:48;;;;;;;13.05;8.52;;;9.70;1.00;;;;;;5049571;28;20045;-67
2023/05/18 05:18:14;;;;;;;15.55;8.07;;;9.70;1.00;;;;;;5050757;28;20497;-67
2023/05/18 05:20:39;;;;;;;14.48;9.57;;;9.80;1.00;;;;;;5050361;28;20501;-67
2023/05/18 05:23:05;;;;;;;17.88;9.60;;;9.80;1.00;;;;;;5049707;28;20147;-67
2023/05/18 05:25:30;;;;;;;15.38;11.65;;;9.90;1.00;;;;;;5049785;28;20040;-67
2023/05/18 05:27:56;;;;;;;14.57;7.90;;;9.90;1.00;;;;;;5046737;28;20548;-67
2023/05/18 05:30:21;;;;;;;14.55;10.05;;;10.00;1.00;;;;;;5049532;28;20037;-67
2023/05/18 05:32:47;;;;;;;13.63;7.93;;;10.10;1.00;;;;;;5049620;28;20048;-67
2023/05/18 05:35:12;;;;;;;13.25;10.18;;;10.10;1.00;;;;;;5049017;28;20039;-67
2023/05/18 05:37:38;;;;;;;11.40;9.82;;;10.20;1.00;;;;;;5048979;28;20384;-67
2023/05/18 05:40:05;;;;;;;15.80;11.80;;;10.20;1.00;;;;;;5048806;28;20175;-67
2023/05/18 05:42:31;;;;;;;14.98;8.27;;;10.20;1.00;;;;;;5048684;28;20040;-64
2023/05/18 05:44:56;;;;;;;11.75;7.97;;;10.20;1.00;;;;;;5046277;28;20051;-64
2023/05/18 05:47:22;;;;;;;16.58;10.18;;;10.20;99.90;;;;;;5047303;28;20050;-64
2023/05/18 05:49:47;;;;;;;14.50;10.55;;;10.30;99.90;;;;;;5047438;28;20033;-64
2023/05/18 05:52:13;;;;;;;18.42;10.27;;;10.30;99.90;;;;;;5050060;28;20103;-64
2023/05/18 05:54:40;;;;;;;11.43;7.50;;;10.30;99.90;;;;;;5049715;28;20045;-64
2023/05/18 05:57:05;;;;;;;15.30;6.90;;;10.40;99.90;;;;;;5049271;28;20029;-63
2023/05/18 05:59:31;;;;;;;8.90;5.90;;;10.40;99.90;;;;;;5042384;28;20138;-64
2023/05/18 06:01:57;;;;;;;14.07;6.82;;;10.40;99.90;;;;;;5041923;28;20052;-63
2023/05/18 06:04:22;;;;;;;14.93;8.25;;;10.50;99.90;;;;;;5022339;28;20049;-64
2023/05/18 06:06:48;;;;;;;15.13;8.55;;;10.50;99.90;;;;;;5045694;28;20048;-63
2023/05/18 06:09:14;;;;;;;12.95;6.90;;;10.60;99.90;;;;;;5044625;28;20052;-64
2023/05/18 06:11:40;;;;;;;9.40;4.53;;;10.60;99.90;;;;;;5046243;28;20123;-64
2023/05/18 06:14:06;;;;;;;10.68;5.43;;;10.70;99.90;;;;;;5059021;28;20159;-63
2023/05/18 06:16:31;;;;;;;8.82;4.38;;;10.70;99.90;;;;;;5046832;28;20037;-64
2023/05/18 06:18:57;;;;;;;12.80;5.35;;;10.70;99.90;;;;;;5049839;28;20036;-63
2023/05/18 06:21:23;;;;;;;14.23;5.20;;;10.80;99.90;;;;;;5040874;28;20083;-64
2023/05/18 06:23:48;;;;;;;13.30;5.75;;;10.70;99.90;;;;;;5042675;28;20048;-64
2023/05/18 06:26:14;;;;;;;11.75;5.55;;;10.80;99.90;;;;;;5048969;28;20052;-64
2023/05/18 06:28:39;;;;;;;10.70;5.55;;;10.80;99.90;;;;;;5049570;28;20487;-64
2023/05/18 06:31:05;;;;;;;14.63;5.25;;;10.90;99.90;;;;;;5047659;28;20098;-64
2023/05/18 06:33:30;;;;;;;11.23;5.00;;;10.90;99.90;;;;;;5039104;28;20037;-63
2023/05/18 06:35:56;;;;;;;11.57;5.07;;;11.00;99.90;;;;;;5051836;28;20195;-64
2023/05/18 06:38:22;;;;;;;12.55;4.43;;;11.00;99.90;;;;;;5063271;28;20135;-64
2023/05/18 06:40:47;;;;;;;9.70;4.72;;;11.00;99.90;;;;;;5045966;28;20119;-64
2023/05/18 06:43:13;;;;;;;10.18;4.57;;;11.10;99.90;;;;;;5047813;28;20045;-64
2023/05/18 06:45:38;;;;;;;15.43;4.80;;;11.00;99.90;;;;;;5054925;28;20513;-64
2023/05/18 06:48:04;;;;;;;11.50;4.25;;;11.00;99.90;;;;;;5050356;28;20131;-63
2023/05/18 06:50:30;;;;;;;10.18;4.57;;;11.00;97.90;;;;;;5058185;28;20549;-64
2023/05/18 06:52:55;;;;;;;11.45;4.80;;;11.10;96.70;;;;;;5042556;28;20041;-63
2023/05/18 06:55:21;;;;;;;12.15;4.32;;;11.10;93.30;;;;;;5048749;28;20033;-64
2023/05/18 06:57:47;;;;;;;15.00;4.68;;;11.20;91.90;;;;;;5048246;28;20041;-64
2023/05/18 07:00:12;;;;;;;17.05;4.50;;;11.30;91.40;;;;;;5050274;28;20064;-69
2023/05/18 07:02:39;;;;;;;9.77;3.72;;;11.40;89.90;;;;;;5053630;28;20044;-68
2023/05/18 07:05:07;;;;;;;8.98;4.38;;;11.50;83.60;;;;;;5050678;28;20036;-62
2023/05/18 07:07:35;;;;;;;10.48;4.13;;;11.50;80.80;;;;;;5050565;28;20425;-63
2023/05/18 07:10:01;;;;;;;10.13;4.32;;;11.60;72.60;;;;;;5049038;28;20064;-62
2023/05/18 07:12:27;;;;;;;10.18;3.97;;;11.60;58.40;;;;;;5049052;28;20119;-63
2023/05/18 07:14:52;;;;;;;13.80;3.50;;;11.60;51.00;;;;;;5045958;28;20056;-62
2023/05/18 07:17:18;;;;;;;14.05;4.57;;;11.60;46.90;;;;;;5048312;28;20041;-61
2023/05/18 07:19:44;;;;;;;12.60;3.65;;;11.60;28.80;;;;;;5041573;28;20041;-61
2023/05/18 07:22:09;;;;;;;10.75;3.70;;;11.70;22.60;;;;;;5042464;28;20039;-62
2023/05/18 07:24:35;;;;;;;10.20;3.95;;;11.80;19.10;;;;;;5047320;28;20072;-61
2023/05/18 07:27:00;;;;;;;9.30;3.88;;;12.00;18.40;;;;;;5061024;28;20041;-62
2023/05/18 07:29:26;;;;;;;8.32;3.28;;;12.10;16.40;;;;;;5036342;28;20029;-61
2023/05/18 07:31:51;;;;;;;12.13;3.55;;;12.80;15.30;;;;;;5046730;28;20068;-65
2023/05/18 07:34:17;;;;;;;11.20;4.07;;;12.30;10.80;;;;;;5046457;28;20414;-65
2023/05/18 07:36:42;;;;;;;10.27;3.55;;;12.50;12.20;;;;;;5046663;28;20039;-65
2023/05/18 07:39:16;;;;;;;16.45;3.80;;;12.50;8.80;;;;;;5037678;28;20092;-65
2023/05/18 07:41:41;;;;;;;11.13;3.40;;;12.60;9.10;;;;;;5039743;28;20056;-65
2023/05/18 07:44:07;;;;;;;10.25;3.55;;;12.70;1.00;;;;;;5051201;28;20475;-65
2023/05/18 07:46:32;;;;;;;10.13;3.47;;;12.70;1.00;;;;;;5052521;28;20457;-65
2023/05/18 07:48:59;;;;;;;8.93;3.30;;;12.70;1.00;;;;;;5051739;28;20632;-65
2023/05/18 07:51:24;;;;;;;10.00;3.00;;;12.60;1.00;;;;;;5052029;28;20053;-65
2023/05/18 07:53:50;;;;;;;14.05;3.42;;;12.50;1.00;;;;;;5050766;28;20048;-65
2023/05/18 07:56:16;;;;;;;11.82;3.47;;;12.30;1.00;;;;;;5052062;28;20044;-65
2023/05/18 07:58:43;;;;;;;8.02;2.97;;;12.10;1.00;;;;;;5050642;28;20044;-65
2023/05/18 08:01:09;;;;;;;12.23;3.28;;;12.20;1.00;;;;;;5052022;28;20037;-65
2023/05/18 08:03:34;;;;;;;8.63;2.95;;;12.10;1.00;;;;;;5051726;28;20040;-65
2023/05/18 08:06:00;;;;;;;9.25;3.00;;;12.20;1.00;;;;;;5051342;28;20029;-65
2023/05/18 08:08:26;;;;;;;9.63;3.05;;;12.30;1.00;;;;;;5051533;28;20072;-65
2023/05/18 08:10:52;;;;;;;6.82;2.72;;;12.40;1.00;;;;;;5051898;28;20037;-65
2023/05/18 08:13:17;;;;;;;11.38;3.25;;;12.50;1.00;;;;;;5052085;28;20083;-65
2023/05/18 08:15:43;;;;;;;9.10;3.15;;;12.60;1.00;;;;;;5050330;28;20072;-65
2023/05/18 08:18:09;;;;;;;10.45;3.10;;;12.60;1.00;;;;;;5051300;28;20041;-65
2023/05/18 08:20:34;;;;;;;9.95;2.85;;;12.60;1.00;;;;;;5051199;28;20044;-65
2023/05/18 08:23:00;;;;;;;8.65;3.10;;;12.60;1.00;;;;;;5051650;28;20041;-66
2023/05/18 08:25:25;;;;;;;9.73;3.30;;;12.70;1.00;;;;;;5049911;28;20032;-65
2023/05/18 08:27:52;;;;;;;12.75;3.08;;;12.70;1.00;;;;;;5050036;28;20446;-65
2023/05/18 08:30:20;;;;;;;10.77;2.97;;;12.70;1.00;;;;;;5049811;28;20088;-65
2023/05/18 08:32:46;;;;;;;9.50;3.40;;;12.60;1.00;;;;;;5051676;28;20071;-65
2023/05/18 08:35:12;;;;;;;10.15;3.40;;;12.70;1.00;;;;;;5051072;28;20048;-65
2023/05/18 08:37:38;;;;;;;8.40;3.08;;;12.70;1.00;;;;;;5050476;28;20129;-65
2023/05/18 08:40:06;;;;;;;11.25;3.25;;;12.70;1.00;;;;;;5050968;28;20114;-65
2023/05/18 08:42:33;;;;;;;13.18;3.65;;;12.60;1.00;;;;;;5049889;28;20040;-65
2023/05/18 08:45:17;;;;;;;14.57;3.72;;;12.60;1.00;;;;;;5051168;28;20048;-65
2023/05/18 08:47:43;;;;;;;9.52;3.25;;;12.80;1.00;;;;;;5051359;28;20116;-65
2023/05/18 08:50:14;;;;;;;9.15;3.47;;;13.30;1.00;;;;;;5049026;28;20501;-65
2023/05/18 08:52:46;;;;;;;10.65;3.55;;;13.10;1.00;;;;;;5050547;28;20029;-65
2023/05/18 08:55:12;;;;;;;10.88;3.10;;;13.20;1.00;;;;;;5051129;28;20047;-65
2023/05/18 08:57:40;;;;;;;7.50;3.20;;;13.40;1.00;;;;;;5050924;28;20572;-65
2023/05/18 09:00:08;;;;;;;9.80;3.78;;;13.50;1.00;;;;;;5049697;28;20112;-65
2023/05/18 09:02:35;;;;;;;9.43;3.35;;;13.80;1.00;;;;;;5049224;28;20120;-66
2023/05/18 09:05:01;;;;;;;9.38;3.10;;;14.00;1.00;;;;;;5049293;28;20033;-66
2023/05/18 09:07:28;;;;;;;8.70;3.20;;;14.30;1.00;;;;;;5048741;28;20106;-66
2023/05/18 09:09:55;;;;;;;8.43;3.30;;;14.50;1.00;;;;;;5050656;28;20441;-66
2023/05/18 09:12:22;;;;;;;8.25;2.88;;;14.70;1.00;;;;;;5049152;28;20076;-66
2023/05/18 09:14:47;;;;;;;10.65;3.10;;;15.10;1.00;;;;;;5049332;28;20496;-66
2023/05/18 09:17:13;;;;;;;10.45;3.50;;;14.90;1.00;;;;;;5050225;28;20167;-66
2023/05/18 09:19:39;;;;;;;9.95;3.20;;;15.70;1.00;;;;;;5049461;28;20063;-66
2023/05/18 09:22:05;;;;;;;7.05;2.85;;;14.90;1.00;;;;;;5049182;28;20072;-66
2023/05/18 09:24:32;;;;;;;7.03;2.75;;;14.90;1.00;;;;;;5049366;28;20059;-66
2023/05/18 09:26:58;;;;;;;13.57;3.47;;;14.70;1.00;;;;;;5047405;28;20426;-66
2023/05/18 09:29:23;;;;;;;11.18;3.50;;;14.70;1.00;;;;;;5048890;28;20052;-66
2023/05/18 09:31:49;;;;;;;9.75;3.17;;;14.40;1.00;;;;;;5048922;28;20525;-66
2023/05/18 09:34:17;;;;;;;9.70;3.20;;;14.50;1.00;;;;;;5048540;28;20056;-66
2023/05/18 09:36:48;;;;;;;7.90;3.25;;;14.60;1.00;;;;;;5048261;28;20096;-66
2023/05/18 09:39:13;;;;;;;6.70;2.65;;;14.60;1.00;;;;;;5033052;28;20048;-65
2023/05/18 09:41:40;;;;;;;8.30;3.33;;;14.60;1.00;;;;;;5048571;28;20057;-66
2023/05/18 09:44:08;;;;;;;10.32;3.08;;;14.50;1.00;;;;;;5048519;28;20044;-65
2023/05/18 09:46:38;;;;;;;8.18;3.15;;;14.50;1.00;;;;;;5048267;28;20072;-65
2023/05/18 09:49:05;;;;;;;7.88;3.00;;;14.10;1.00;;;;;;5049792;28;20037;-65
2023/05/18 09:51:37;;;;;;;11.55;3.10;;;14.10;1.00;;;;;;5048376;28;20048;-66
2023/05/18 09:54:04;;;;;;;8.95;3.20;;;14.30;1.00;;;;;;5048717;28;20049;-65
2023/05/18 09:56:30;;;;;;;8.73;3.25;;;14.40;1.00;;;;;;5048754;28;20045;-66
2023/05/18 09:58:57;;;;;;;9.68;3.10;;;14.40;1.00;;;;;;5049694;28;20515;-65
2023/05/18 10:01:22;;;;;;;9.10;3.10;;;14.30;1.00;;;;;;5047320;28;20419;-66
2023/05/18 10:03:48;;;;;;;7.97;3.00;;;14.40;1.00;;;;;;5050266;28;20043;-65
2023/05/18 10:06:18;;;;;;;9.23;3.20;;;14.40;1.00;;;;;;5048309;28;20041;-66
2023/05/18 10:08:44;;;;;;;9.48;3.08;;;14.10;1.00;;;;;;5048503;28;20063;-65
2023/05/18 10:11:10;;;;;;;9.65;3.10;;;14.10;1.00;;;;;;5049292;28;20037;-65
2023/05/18 10:13:36;;;;;;;10.80;3.50;;;14.10;1.00;;;;;;5049683;28;20116;-66
2023/05/18 10:16:04;;;;;;;11.57;3.30;;;14.30;1.00;;;;;;5048185;28;20049;-65
2023/05/18 10:18:31;;;;;;;11.20;3.40;;;14.30;1.00;;;;;;5048250;28;20498;-65
2023/05/18 10:20:59;;;;;;;9.05;3.13;;;14.30;1.00;;;;;;5049841;28;20044;-66
2023/05/18 10:23:29;;;;;;;10.77;3.45;;;14.30;1.00;;;;;;5048520;28;20057;-66
2023/05/18 10:25:55;;;;;;;11.63;3.38;;;14.40;1.00;;;;;;5046645;28;20049;-66
2023/05/18 10:28:32;;;;;;;8.30;3.38;;;14.50;1.00;;;;;;5047971;28;20045;-66
2023/05/18 10:30:58;;;;;;;10.85;3.35;;;14.50;1.00;;;;;;5048134;28;20490;-65
2023/05/18 10:33:26;;;;;;;12.38;3.50;;;14.40;1.00;;;;;;5049807;28;20123;-65
2023/05/18 10:35:53;;;;;;;11.13;3.17;;;14.10;1.00;;;;;;5049054;28;20041;-65
2023/05/18 10:38:22;;;;;;;9.02;3.42;;;14.20;1.00;;;;;;5049284;28;20049;-66
2023/05/18 10:40:50;;;;;;;9.38;3.33;;;14.20;1.00;;;;;;5031673;28;20110;-65
2023/05/18 10:43:19;;;;;;;11.27;3.53;;;14.30;1.00;;;;;;5046357;28;20052;-66
2023/05/18 10:45:57;;;;;;;11.75;3.60;;;14.50;1.00;;;;;;5029795;28;20056;-65
2023/05/18 10:48:24;;;;;;;9.82;3.42;;;14.50;1.00;;;;;;5047657;28;20621;-65
2023/05/18 10:50:51;;;;;;;9.50;3.30;;;14.40;1.00;;;;;;5049040;28;20159;-66
2023/05/18 10:53:28;;;;;;;9.77;3.45;;;14.40;1.00;;;;;;5049090;28;20044;-66
2023/05/18 10:55:54;;;;;;;10.77;3.80;;;14.30;1.00;;;;;;5048818;28;20033;-66
2023/05/18 10:58:23;;;;;;;10.15;3.47;;;14.40;1.00;;;;;;5044508;28;20049;-65
2023/05/18 11:00:52;;;;;;;7.75;3.35;;;14.50;1.00;;;;;;5028086;28;20077;-66
2023/05/18 11:03:19;;;;;;;11.52;3.33;;;14.50;1.00;;;;;;5038838;28;20037;-66
2023/05/18 11:06:06;;;;;;;11.80;3.22;;;14.60;1.00;;;;;;5049057;28;20686;-66
2023/05/18 11:08:33;;;;;;;11.05;3.47;;;14.70;1.00;;;;;;5049049;28;20052;-65
2023/05/18 11:11:07;;;;;;;8.88;3.47;;;14.90;1.00;;;;;;5045561;28;20491;-66
2023/05/18 11:13:35;;;;;;;8.18;3.40;;;15.10;1.00;;;;;;5036843;28;20049;-66
2023/05/18 11:16:01;;;;;;;7.50;3.33;;;15.10;1.00;;;;;;5053131;28;20037;-66
2023/05/18 11:18:39;;;;;;;8.98;3.58;;;15.10;1.00;;;;;;5051540;28;20036;-66
2023/05/18 11:21:27;;;;;;;8.77;3.20;;;15.20;1.00;;;;;;5052585;28;20036;-66
2023/05/18 11:24:15;;;;;;;10.20;3.75;;;15.10;1.00;;;;;;5051244;28;20390;-66
2023/05/18 11:26:42;;;;;;;8.75;3.53;;;15.10;1.00;;;;;;5051520;28;20041;-66
2023/05/18 11:29:35;;;;;;;9.05;3.53;;;15.10;1.00;;;;;;5037212;28;20408;-66
2023/05/18 11:32:01;;;;;;;10.52;3.67;;;15.30;1.00;;;;;;5043758;28;20075;-66
2023/05/18 11:34:38;;;;;;;10.85;3.63;;;15.20;1.00;;;;;;5050747;28;20041;-66
2023/05/18 11:37:05;;;;;;;9.63;3.45;;;15.30;1.00;;;;;;5051219;28;20080;-66
2023/05/18 11:39:31;;;;;;;12.48;3.83;;;15.20;1.00;;;;;;5051159;28;20110;-66
2023/05/18 11:42:00;;;;;;;11.95;3.70;;;15.20;1.00;;;;;;5051084;28;20060;-66
2023/05/18 11:44:27;;;;;;;10.82;3.88;;;15.30;1.00;;;;;;5050540;28;20445;-66
2023/05/18 11:46:53;;;;;;;8.10;3.35;;;15.50;1.00;;;;;;5034358;28;20578;-66
2023/05/18 11:49:30;;;;;;;11.82;4.20;;;15.60;1.00;;;;;;5051343;28;20128;-66
2023/05/18 11:52:07;;;;;;;8.75;3.35;;;15.60;1.00;;;;;;5042143;28;20064;-66
2023/05/18 11:54:50;;;;;;;9.20;3.88;;;15.50;1.00;;;;;;5051080;28;20128;-66
2023/05/18 11:57:17;;;;;;;8.63;3.70;;;15.30;1.00;;;;;;5051765;28;20073;-66
2023/05/18 11:59:45;;;;;;;8.15;3.38;;;15.30;1.00;;;;;;5052272;28;20390;-66
2023/05/18 12:02:17;;;;;;;8.82;3.50;;;15.30;1.00;;;;;;5050467;28;20048;-65
2023/05/18 12:04:45;;;;;;;8.93;3.40;;;15.30;1.00;;;;;;5051619;28;20106;-66
2023/05/18 12:07:11;;;;;;;11.30;3.88;;;15.20;1.00;;;;;;5051674;28;20124;-66
2023/05/18 12:09:43;;;;;;;9.65;3.53;;;15.10;1.00;;;;;;5050720;28;20629;-66
2023/05/18 12:12:10;;;;;;;10.55;3.70;;;15.10;1.00;;;;;;5051694;28;20450;-65
2023/05/18 12:14:37;;;;;;;10.30;3.63;;;15.20;1.00;;;;;;5051973;28;20502;-65
2023/05/18 12:17:04;;;;;;;8.98;3.70;;;15.20;1.00;;;;;;5051460;28;20033;-65
2023/05/18 12:19:35;;;;;;;9.75;3.80;;;15.40;1.00;;;;;;5051288;28;20033;-65
2023/05/18 12:22:01;;;;;;;9.20;3.55;;;15.50;1.00;;;;;;5034761;28;20048;-66
2023/05/18 12:24:27;;;;;;;10.70;3.95;;;15.60;1.00;;;;;;5050172;28;20041;-66
2023/05/18 12:26:53;;;;;;;9.65;3.63;;;15.60;1.00;;;;;;5050078;28;20159;-65
2023/05/18 12:29:20;;;;;;;12.70;3.95;;;15.60;1.00;;;;;;5051256;28;20514;-66
2023/05/18 12:31:48;;;;;;;13.88;3.63;;;15.40;1.00;;;;;;5050028;28;20124;-66
2023/05/18 12:34:14;;;;;;;11.25;3.92;;;15.40;1.00;;;;;;5049296;28;20052;-65
2023/05/18 12:36:42;;;;;;;12.40;3.88;;;15.30;1.00;;;;;;5049639;28;20033;-66
2023/05/18 12:39:08;;;;;;;10.73;4.05;;;15.40;1.00;;;;;;5051420;28;20065;-65
2023/05/18 12:41:33;;;;;;;10.80;3.83;;;15.40;1.00;;;;;;5045552;28;20525;-67
2023/05/18 12:43:59;;;;;;;10.63;4.25;;;15.40;1.00;;;;;;5031651;28;20058;-65
2023/05/18 12:46:24;;;;;;;12.23;4.25;;;15.30;1.00;;;;;;5045006;28;20809;-67